sensor_id;sensor_type;location;lat;lon;timestamp;P1;durP1;ratioP1;P2;durP2;ratioP2
29092;SDS011;16167;48.768;14.984;2024-01-10T00:01:28;52.05;;;19.52;;
29092;SDS011;16167;48.768;14.984;2024-01-10T00:03:59;73.63;;;27.53;;
29092;SDS011;16167;48.768;14.984;2024-01-10T00:06:29;73.80;;;24.95;;
29092;SDS011;16167;48.768;14.984;2024-01-10T00:08:57;65.50;;;26.13;;
29092;SDS011;16167;48.768;14.984;2024-01-10T00:11:25;60.20;;;22.83;;
29092;SDS011;16167;48.768;14.984;2024-01-10T00:13:54;64.63;;;24.40;;
29092;SDS011;16167;48.768;14.984;2024-01-10T00:16:26;71.87;;;26.40;;
29092;SDS011;16167;48.768;14.984;2024-01-10T00:18:55;59.70;;;21.52;;
29092;SDS011;16167;48.768;14.984;2024-01-10T00:21:23;55.95;;;19.85;;
29092;SDS011;16167;48.768;14.984;2024-01-10T00:23:53;67.88;;;27.10;;
29092;SDS011;16167;48.768;14.984;2024-01-10T00:26:21;65.83;;;25.90;;
29092;SDS011;16167;48.768;14.984;2024-01-10T00:28:50;46.63;;;20.90;;
29092;SDS011;16167;48.768;14.984;2024-01-10T00:31:18;76.22;;;27.63;;
29092;SDS011;16167;48.768;14.984;2024-01-10T00:33:46;65.75;;;25.95;;
29092;SDS011;16167;48.768;14.984;2024-01-10T00:36:15;50.65;;;19.52;;
29092;SDS011;16167;48.768;14.984;2024-01-10T00:38:43;52.88;;;21.40;;
29092;SDS011;16167;48.768;14.984;2024-01-10T00:41:12;74.83;;;27.53;;
29092;SDS011;16167;48.768;14.984;2024-01-10T00:43:41;77.57;;;28.73;;
29092;SDS011;16167;48.768;14.984;2024-01-10T00:46:09;66.72;;;27.00;;
29092;SDS011;16167;48.768;14.984;2024-01-10T00:48:37;67.30;;;27.10;;
29092;SDS011;16167;48.768;14.984;2024-01-10T00:51:06;58.28;;;25.95;;
29092;SDS011;16167;48.768;14.984;2024-01-10T00:53:35;70.20;;;29.37;;
29092;SDS011;16167;48.768;14.984;2024-01-10T00:56:05;72.63;;;29.23;;
29092;SDS011;16167;48.768;14.984;2024-01-10T00:58:35;75.57;;;29.83;;
29092;SDS011;16167;48.768;14.984;2024-01-10T01:01:04;78.77;;;30.13;;
29092;SDS011;16167;48.768;14.984;2024-01-10T01:03:32;56.53;;;21.33;;
29092;SDS011;16167;48.768;14.984;2024-01-10T01:06:01;77.68;;;28.67;;
29092;SDS011;16167;48.768;14.984;2024-01-10T01:08:32;74.47;;;27.43;;
29092;SDS011;16167;48.768;14.984;2024-01-10T01:11:00;72.38;;;28.55;;
29092;SDS011;16167;48.768;14.984;2024-01-10T01:13:28;73.82;;;30.52;;
29092;SDS011;16167;48.768;14.984;2024-01-10T01:15:58;62.90;;;26.48;;
29092;SDS011;16167;48.768;14.984;2024-01-10T01:18:26;82.30;;;30.50;;
29092;SDS011;16167;48.768;14.984;2024-01-10T01:20:55;75.15;;;29.70;;
29092;SDS011;16167;48.768;14.984;2024-01-10T01:23:23;76.03;;;28.27;;
29092;SDS011;16167;48.768;14.984;2024-01-10T01:26:04;78.40;;;29.27;;
29092;SDS011;16167;48.768;14.984;2024-01-10T01:28:33;78.82;;;28.63;;
29092;SDS011;16167;48.768;14.984;2024-01-10T01:31:03;67.45;;;27.40;;
29092;SDS011;16167;48.768;14.984;2024-01-10T01:33:31;84.63;;;30.27;;
29092;SDS011;16167;48.768;14.984;2024-01-10T01:35:59;73.93;;;30.03;;
29092;SDS011;16167;48.768;14.984;2024-01-10T01:38:27;73.82;;;29.73;;
29092;SDS011;16167;48.768;14.984;2024-01-10T01:40:56;80.82;;;30.85;;
29092;SDS011;16167;48.768;14.984;2024-01-10T01:43:25;77.78;;;29.05;;
29092;SDS011;16167;48.768;14.984;2024-01-10T01:45:55;81.45;;;30.70;;
29092;SDS011;16167;48.768;14.984;2024-01-10T01:48:25;74.47;;;26.83;;
29092;SDS011;16167;48.768;14.984;2024-01-10T01:50:56;69.70;;;27.60;;
29092;SDS011;16167;48.768;14.984;2024-01-10T01:53:25;74.50;;;30.93;;
29092;SDS011;16167;48.768;14.984;2024-01-10T01:55:55;81.17;;;30.57;;
29092;SDS011;16167;48.768;14.984;2024-01-10T01:58:25;79.03;;;30.57;;
29092;SDS011;16167;48.768;14.984;2024-01-10T02:03:40;78.00;;;28.90;;
29092;SDS011;16167;48.768;14.984;2024-01-10T02:06:10;80.23;;;30.33;;
29092;SDS011;16167;48.768;14.984;2024-01-10T02:08:40;71.60;;;29.93;;
29092;SDS011;16167;48.768;14.984;2024-01-10T02:11:08;82.13;;;30.15;;
29092;SDS011;16167;48.768;14.984;2024-01-10T02:13:41;80.73;;;30.60;;
29092;SDS011;16167;48.768;14.984;2024-01-10T02:16:10;76.55;;;30.45;;
29092;SDS011;16167;48.768;14.984;2024-01-10T02:18:40;72.40;;;29.25;;
29092;SDS011;16167;48.768;14.984;2024-01-10T02:21:09;77.50;;;28.93;;
29092;SDS011;16167;48.768;14.984;2024-01-10T02:23:37;83.30;;;31.53;;
29092;SDS011;16167;48.768;14.984;2024-01-10T02:26:10;75.97;;;29.77;;
29092;SDS011;16167;48.768;14.984;2024-01-10T02:28:39;83.43;;;31.83;;
29092;SDS011;16167;48.768;14.984;2024-01-10T02:31:06;85.43;;;31.20;;
29092;SDS011;16167;48.768;14.984;2024-01-10T02:33:34;77.80;;;31.08;;
29092;SDS011;16167;48.768;14.984;2024-01-10T02:36:04;83.18;;;30.33;;
29092;SDS011;16167;48.768;14.984;2024-01-10T02:38:32;84.47;;;30.52;;
29092;SDS011;16167;48.768;14.984;2024-01-10T02:41:01;80.10;;;30.65;;
29092;SDS011;16167;48.768;14.984;2024-01-10T02:43:31;80.65;;;30.70;;
29092;SDS011;16167;48.768;14.984;2024-01-10T02:45:59;83.53;;;30.40;;
29092;SDS011;16167;48.768;14.984;2024-01-10T02:48:27;60.13;;;24.10;;
29092;SDS011;16167;48.768;14.984;2024-01-10T02:50:56;66.18;;;25.73;;
29092;SDS011;16167;48.768;14.984;2024-01-10T02:53:24;77.57;;;31.60;;
29092;SDS011;16167;48.768;14.984;2024-01-10T02:55:52;79.87;;;31.60;;
29092;SDS011;16167;48.768;14.984;2024-01-10T02:58:20;82.38;;;29.88;;
29092;SDS011;16167;48.768;14.984;2024-01-10T03:00:53;70.60;;;31.10;;
29092;SDS011;16167;48.768;14.984;2024-01-10T03:03:21;78.53;;;30.23;;
29092;SDS011;16167;48.768;14.984;2024-01-10T03:05:50;72.80;;;28.75;;
29092;SDS011;16167;48.768;14.984;2024-01-10T03:08:18;87.40;;;31.90;;
29092;SDS011;16167;48.768;14.984;2024-01-10T03:10:46;67.40;;;27.38;;
29092;SDS011;16167;48.768;14.984;2024-01-10T03:13:14;78.00;;;30.33;;
29092;SDS011;16167;48.768;14.984;2024-01-10T03:15:43;70.63;;;26.40;;
29092;SDS011;16167;48.768;14.984;2024-01-10T03:18:12;84.00;;;32.13;;
29092;SDS011;16167;48.768;14.984;2024-01-10T03:20:41;77.47;;;29.87;;
29092;SDS011;16167;48.768;14.984;2024-01-10T03:23:10;63.92;;;23.98;;
29092;SDS011;16167;48.768;14.984;2024-01-10T03:25:38;60.45;;;23.73;;
29092;SDS011;16167;48.768;14.984;2024-01-10T03:28:06;67.63;;;25.40;;
29092;SDS011;16167;48.768;14.984;2024-01-10T03:30:35;83.97;;;31.88;;
29092;SDS011;16167;48.768;14.984;2024-01-10T03:33:03;65.55;;;25.73;;
29092;SDS011;16167;48.768;14.984;2024-01-10T03:35:33;86.63;;;30.70;;
29092;SDS011;16167;48.768;14.984;2024-01-10T03:38:01;78.40;;;31.60;;
29092;SDS011;16167;48.768;14.984;2024-01-10T03:40:30;90.78;;;33.58;;
29092;SDS011;16167;48.768;14.984;2024-01-10T03:42:58;73.27;;;25.73;;
29092;SDS011;16167;48.768;14.984;2024-01-10T03:45:27;84.07;;;31.08;;
29092;SDS011;16167;48.768;14.984;2024-01-10T03:47:56;80.68;;;30.65;;
29092;SDS011;16167;48.768;14.984;2024-01-10T03:50:24;66.68;;;24.73;;
29092;SDS011;16167;48.768;14.984;2024-01-10T03:52:54;61.28;;;24.48;;
29092;SDS011;16167;48.768;14.984;2024-01-10T03:55:22;86.93;;;31.07;;
29092;SDS011;16167;48.768;14.984;2024-01-10T03:57:51;85.38;;;33.45;;
29092;SDS011;16167;48.768;14.984;2024-01-10T04:00:19;83.47;;;33.35;;
29092;SDS011;16167;48.768;14.984;2024-01-10T04:02:47;72.17;;;25.47;;
29092;SDS011;16167;48.768;14.984;2024-01-10T04:05:18;90.37;;;33.10;;
29092;SDS011;16167;48.768;14.984;2024-01-10T04:07:47;88.13;;;33.50;;
29092;SDS011;16167;48.768;14.984;2024-01-10T04:10:16;79.10;;;31.33;;
29092;SDS011;16167;48.768;14.984;2024-01-10T04:12:45;85.27;;;32.90;;
29092;SDS011;16167;48.768;14.984;2024-01-10T04:15:13;81.40;;;32.38;;
29092;SDS011;16167;48.768;14.984;2024-01-10T04:17:42;89.05;;;34.53;;
29092;SDS011;16167;48.768;14.984;2024-01-10T04:20:10;81.38;;;26.70;;
29092;SDS011;16167;48.768;14.984;2024-01-10T04:22:39;69.55;;;27.00;;
29092;SDS011;16167;48.768;14.984;2024-01-10T04:25:07;69.38;;;25.10;;
29092;SDS011;16167;48.768;14.984;2024-01-10T04:27:37;98.68;;;36.80;;
29092;SDS011;16167;48.768;14.984;2024-01-10T04:30:06;79.83;;;32.60;;
29092;SDS011;16167;48.768;14.984;2024-01-10T04:32:35;89.40;;;34.63;;
29092;SDS011;16167;48.768;14.984;2024-01-10T04:35:03;85.43;;;32.72;;
29092;SDS011;16167;48.768;14.984;2024-01-10T04:37:33;103.77;;;36.73;;
29092;SDS011;16167;48.768;14.984;2024-01-10T04:40:01;94.03;;;36.55;;
29092;SDS011;16167;48.768;14.984;2024-01-10T04:42:34;97.50;;;34.07;;
29092;SDS011;16167;48.768;14.984;2024-01-10T04:45:04;86.13;;;34.83;;
29092;SDS011;16167;48.768;14.984;2024-01-10T04:47:33;93.70;;;36.50;;
29092;SDS011;16167;48.768;14.984;2024-01-10T04:50:02;90.40;;;33.50;;
29092;SDS011;16167;48.768;14.984;2024-01-10T04:52:34;91.20;;;33.90;;
29092;SDS011;16167;48.768;14.984;2024-01-10T04:55:03;92.03;;;33.55;;
29092;SDS011;16167;48.768;14.984;2024-01-10T04:57:35;93.07;;;34.23;;
29092;SDS011;16167;48.768;14.984;2024-01-10T05:00:05;95.38;;;36.03;;
29092;SDS011;16167;48.768;14.984;2024-01-10T05:02:36;96.57;;;36.13;;
29092;SDS011;16167;48.768;14.984;2024-01-10T05:05:06;98.53;;;37.97;;
29092;SDS011;16167;48.768;14.984;2024-01-10T05:07:34;98.13;;;35.67;;
29092;SDS011;16167;48.768;14.984;2024-01-10T05:10:03;94.50;;;37.35;;
29092;SDS011;16167;48.768;14.984;2024-01-10T05:12:32;104.30;;;40.17;;
29092;SDS011;16167;48.768;14.984;2024-01-10T05:15:00;75.28;;;28.85;;
29092;SDS011;16167;48.768;14.984;2024-01-10T05:19:59;88.37;;;35.70;;
29092;SDS011;16167;48.768;14.984;2024-01-10T05:22:27;94.85;;;37.92;;
29092;SDS011;16167;48.768;14.984;2024-01-10T05:24:55;79.32;;;29.55;;
29092;SDS011;16167;48.768;14.984;2024-01-10T05:27:24;76.80;;;31.38;;
29092;SDS011;16167;48.768;14.984;2024-01-10T05:29:52;100.03;;;36.93;;
29092;SDS011;16167;48.768;14.984;2024-01-10T05:32:20;101.53;;;40.37;;
29092;SDS011;16167;48.768;14.984;2024-01-10T05:34:50;79.63;;;28.88;;
29092;SDS011;16167;48.768;14.984;2024-01-10T05:37:18;100.70;;;38.80;;
29092;SDS011;16167;48.768;14.984;2024-01-10T05:39:46;82.07;;;32.75;;
29092;SDS011;16167;48.768;14.984;2024-01-10T05:44:47;107.40;;;39.70;;
29092;SDS011;16167;48.768;14.984;2024-01-10T05:47:16;108.20;;;37.55;;
29092;SDS011;16167;48.768;14.984;2024-01-10T05:49:44;98.85;;;36.58;;
29092;SDS011;16167;48.768;14.984;2024-01-10T05:52:13;74.90;;;28.50;;
29092;SDS011;16167;48.768;14.984;2024-01-10T05:54:42;105.23;;;39.57;;
29092;SDS011;16167;48.768;14.984;2024-01-10T05:57:10;101.40;;;39.90;;
29092;SDS011;16167;48.768;14.984;2024-01-10T05:59:38;75.15;;;29.83;;
29092;SDS011;16167;48.768;14.984;2024-01-10T06:02:06;96.83;;;36.40;;
29092;SDS011;16167;48.768;14.984;2024-01-10T06:04:35;92.00;;;36.15;;
29092;SDS011;16167;48.768;14.984;2024-01-10T06:07:04;76.95;;;30.52;;
29092;SDS011;16167;48.768;14.984;2024-01-10T06:09:36;98.87;;;38.43;;
29092;SDS011;16167;48.768;14.984;2024-01-10T06:12:06;99.57;;;36.23;;
29092;SDS011;16167;48.768;14.984;2024-01-10T06:14:34;78.07;;;30.95;;
29092;SDS011;16167;48.768;14.984;2024-01-10T06:17:03;103.95;;;39.45;;
29092;SDS011;16167;48.768;14.984;2024-01-10T06:19:32;95.87;;;36.67;;
29092;SDS011;16167;48.768;14.984;2024-01-10T06:22:00;83.88;;;32.42;;
29092;SDS011;16167;48.768;14.984;2024-01-10T06:24:28;107.07;;;39.25;;
29092;SDS011;16167;48.768;14.984;2024-01-10T06:26:58;96.28;;;38.65;;
29092;SDS011;16167;48.768;14.984;2024-01-10T06:29:27;105.90;;;39.60;;
29092;SDS011;16167;48.768;14.984;2024-01-10T06:31:56;98.80;;;37.55;;
29092;SDS011;16167;48.768;14.984;2024-01-10T06:34:24;110.30;;;40.70;;
29092;SDS011;16167;48.768;14.984;2024-01-10T06:36:59;101.17;;;37.50;;
29092;SDS011;16167;48.768;14.984;2024-01-10T06:39:27;100.20;;;39.45;;
29092;SDS011;16167;48.768;14.984;2024-01-10T06:41:55;109.05;;;38.63;;
29092;SDS011;16167;48.768;14.984;2024-01-10T06:44:25;79.20;;;32.88;;
29092;SDS011;16167;48.768;14.984;2024-01-10T06:46:55;95.73;;;36.50;;
29092;SDS011;16167;48.768;14.984;2024-01-10T06:49:23;97.63;;;38.83;;
29092;SDS011;16167;48.768;14.984;2024-01-10T06:51:53;99.53;;;39.23;;
29092;SDS011;16167;48.768;14.984;2024-01-10T06:54:22;105.10;;;39.35;;
29092;SDS011;16167;48.768;14.984;2024-01-10T06:56:50;102.43;;;40.63;;
29092;SDS011;16167;48.768;14.984;2024-01-10T06:59:18;102.63;;;39.30;;
29092;SDS011;16167;48.768;14.984;2024-01-10T07:01:52;83.70;;;29.52;;
29092;SDS011;16167;48.768;14.984;2024-01-10T07:04:22;109.70;;;40.60;;
29092;SDS011;16167;48.768;14.984;2024-01-10T07:06:51;109.72;;;42.85;;
29092;SDS011;16167;48.768;14.984;2024-01-10T07:09:19;100.53;;;39.42;;
29092;SDS011;16167;48.768;14.984;2024-01-10T07:11:48;82.88;;;30.50;;
29092;SDS011;16167;48.768;14.984;2024-01-10T07:14:16;105.57;;;39.78;;
29092;SDS011;16167;48.768;14.984;2024-01-10T07:16:45;105.30;;;39.67;;
29092;SDS011;16167;48.768;14.984;2024-01-10T07:19:15;105.87;;;39.93;;
29092;SDS011;16167;48.768;14.984;2024-01-10T07:21:44;107.20;;;42.10;;
29092;SDS011;16167;48.768;14.984;2024-01-10T07:24:12;114.90;;;40.07;;
29092;SDS011;16167;48.768;14.984;2024-01-10T07:26:40;100.78;;;37.33;;
29092;SDS011;16167;48.768;14.984;2024-01-10T07:29:08;92.70;;;37.70;;
29092;SDS011;16167;48.768;14.984;2024-01-10T07:31:37;82.35;;;30.00;;
29092;SDS011;16167;48.768;14.984;2024-01-10T07:34:07;99.47;;;40.57;;
29092;SDS011;16167;48.768;14.984;2024-01-10T07:36:42;111.57;;;41.90;;
29092;SDS011;16167;48.768;14.984;2024-01-10T07:39:11;109.60;;;40.53;;
29092;SDS011;16167;48.768;14.984;2024-01-10T07:41:42;93.23;;;37.60;;
29092;SDS011;16167;48.768;14.984;2024-01-10T07:44:10;79.57;;;32.78;;
29092;SDS011;16167;48.768;14.984;2024-01-10T07:46:38;101.85;;;39.08;;
29092;SDS011;16167;48.768;14.984;2024-01-10T07:49:07;105.65;;;41.78;;
29092;SDS011;16167;48.768;14.984;2024-01-10T07:51:35;101.07;;;40.92;;
29092;SDS011;16167;48.768;14.984;2024-01-10T07:54:05;78.10;;;31.95;;
29092;SDS011;16167;48.768;14.984;2024-01-10T07:56:33;99.67;;;40.50;;
29092;SDS011;16167;48.768;14.984;2024-01-10T07:59:02;105.32;;;40.17;;
29092;SDS011;16167;48.768;14.984;2024-01-10T08:01:32;96.77;;;39.37;;
29092;SDS011;16167;48.768;14.984;2024-01-10T08:04:00;75.57;;;32.67;;
29092;SDS011;16167;48.768;14.984;2024-01-10T08:06:29;98.03;;;40.75;;
29092;SDS011;16167;48.768;14.984;2024-01-10T08:08:59;105.13;;;38.63;;
29092;SDS011;16167;48.768;14.984;2024-01-10T08:11:32;97.83;;;40.63;;
29092;SDS011;16167;48.768;14.984;2024-01-10T08:14:01;108.87;;;41.53;;
29092;SDS011;16167;48.768;14.984;2024-01-10T08:16:29;100.00;;;39.05;;
29092;SDS011;16167;48.768;14.984;2024-01-10T08:19:02;111.20;;;40.90;;
29092;SDS011;16167;48.768;14.984;2024-01-10T08:21:31;96.00;;;39.63;;
29092;SDS011;16167;48.768;14.984;2024-01-10T08:24:00;104.97;;;41.42;;
29092;SDS011;16167;48.768;14.984;2024-01-10T08:26:36;104.17;;;41.77;;
29092;SDS011;16167;48.768;14.984;2024-01-10T08:29:05;102.07;;;40.57;;
29092;SDS011;16167;48.768;14.984;2024-01-10T08:31:36;95.50;;;40.83;;
29092;SDS011;16167;48.768;14.984;2024-01-10T08:34:07;102.40;;;40.93;;
29092;SDS011;16167;48.768;14.984;2024-01-10T08:36:40;105.40;;;41.43;;
29092;SDS011;16167;48.768;14.984;2024-01-10T08:39:13;96.17;;;40.00;;
29092;SDS011;16167;48.768;14.984;2024-01-10T08:41:43;96.70;;;40.23;;
29092;SDS011;16167;48.768;14.984;2024-01-10T08:44:11;105.60;;;39.07;;
29092;SDS011;16167;48.768;14.984;2024-01-10T08:46:40;99.97;;;41.28;;
29092;SDS011;16167;48.768;14.984;2024-01-10T08:49:08;71.47;;;30.80;;
29092;SDS011;16167;48.768;14.984;2024-01-10T08:51:41;97.60;;;38.03;;
29092;SDS011;16167;48.768;14.984;2024-01-10T08:54:14;95.97;;;39.35;;
29092;SDS011;16167;48.768;14.984;2024-01-10T08:56:47;106.15;;;40.35;;
29092;SDS011;16167;48.768;14.984;2024-01-10T09:03:00;99.37;;;39.53;;
29092;SDS011;16167;48.768;14.984;2024-01-10T09:07:59;95.60;;;38.80;;
29092;SDS011;16167;48.768;14.984;2024-01-10T09:10:29;95.68;;;40.13;;
29092;SDS011;16167;48.768;14.984;2024-01-10T09:12:59;76.90;;;31.42;;
29092;SDS011;16167;48.768;14.984;2024-01-10T09:15:27;98.18;;;39.53;;
29092;SDS011;16167;48.768;14.984;2024-01-10T09:17:56;96.20;;;42.53;;
29092;SDS011;16167;48.768;14.984;2024-01-10T09:20:25;77.75;;;33.45;;
29092;SDS011;16167;48.768;14.984;2024-01-10T09:22:54;96.65;;;39.95;;
29092;SDS011;16167;48.768;14.984;2024-01-10T09:25:22;93.67;;;39.30;;
29092;SDS011;16167;48.768;14.984;2024-01-10T09:27:50;99.72;;;40.60;;
29092;SDS011;16167;48.768;14.984;2024-01-10T09:30:20;90.43;;;36.20;;
29092;SDS011;16167;48.768;14.984;2024-01-10T09:32:50;93.65;;;39.17;;
29092;SDS011;16167;48.768;14.984;2024-01-10T09:35:19;95.90;;;39.88;;
29092;SDS011;16167;48.768;14.984;2024-01-10T09:37:47;93.78;;;38.03;;
29092;SDS011;16167;48.768;14.984;2024-01-10T09:40:17;82.47;;;38.22;;
29092;SDS011;16167;48.768;14.984;2024-01-10T09:42:48;93.18;;;40.10;;
29092;SDS011;16167;48.768;14.984;2024-01-10T09:45:20;92.20;;;38.53;;
29092;SDS011;16167;48.768;14.984;2024-01-10T09:47:52;90.18;;;39.55;;
29092;SDS011;16167;48.768;14.984;2024-01-10T09:50:24;91.20;;;39.95;;
29092;SDS011;16167;48.768;14.984;2024-01-10T09:52:53;86.40;;;39.20;;
29092;SDS011;16167;48.768;14.984;2024-01-10T09:55:28;92.00;;;38.65;;
29092;SDS011;16167;48.768;14.984;2024-01-10T09:58:02;93.93;;;39.17;;
29092;SDS011;16167;48.768;14.984;2024-01-10T10:00:34;87.65;;;39.63;;
29092;SDS011;16167;48.768;14.984;2024-01-10T10:03:04;90.63;;;38.63;;
29092;SDS011;16167;48.768;14.984;2024-01-10T10:05:37;87.90;;;38.08;;
29092;SDS011;16167;48.768;14.984;2024-01-10T10:08:09;84.22;;;38.40;;
29092;SDS011;16167;48.768;14.984;2024-01-10T10:10:41;84.60;;;37.75;;
29092;SDS011;16167;48.768;14.984;2024-01-10T10:13:23;84.68;;;38.47;;
29092;SDS011;16167;48.768;14.984;2024-01-10T10:16:01;88.65;;;38.30;;
29092;SDS011;16167;48.768;14.984;2024-01-10T10:18:31;82.20;;;38.22;;
29092;SDS011;16167;48.768;14.984;2024-01-10T10:21:06;80.43;;;35.35;;
29092;SDS011;16167;48.768;14.984;2024-01-10T10:23:37;87.55;;;38.83;;
29092;SDS011;16167;48.768;14.984;2024-01-10T10:26:10;88.88;;;39.28;;
29092;SDS011;16167;48.768;14.984;2024-01-10T10:28:41;79.82;;;36.15;;
29092;SDS011;16167;48.768;14.984;2024-01-10T10:31:11;80.05;;;38.38;;
29092;SDS011;16167;48.768;14.984;2024-01-10T10:33:39;89.38;;;40.47;;
29092;SDS011;16167;48.768;14.984;2024-01-10T10:36:07;82.45;;;37.90;;
29092;SDS011;16167;48.768;14.984;2024-01-10T10:38:36;87.47;;;40.45;;
29092;SDS011;16167;48.768;14.984;2024-01-10T10:41:05;77.97;;;40.08;;
29092;SDS011;16167;48.768;14.984;2024-01-10T10:43:37;77.35;;;38.50;;
29092;SDS011;16167;48.768;14.984;2024-01-10T10:48:38;70.95;;;38.65;;
29092;SDS011;16167;48.768;14.984;2024-01-10T10:51:08;68.50;;;36.95;;
29092;SDS011;16167;48.768;14.984;2024-01-10T10:53:38;66.97;;;38.63;;
29092;SDS011;16167;48.768;14.984;2024-01-10T10:56:07;62.63;;;39.03;;
29092;SDS011;16167;48.768;14.984;2024-01-10T10:58:37;60.25;;;39.13;;
29092;SDS011;16167;48.768;14.984;2024-01-10T11:01:07;59.70;;;39.53;;
29092;SDS011;16167;48.768;14.984;2024-01-10T11:03:41;49.65;;;34.17;;
29092;SDS011;16167;48.768;14.984;2024-01-10T11:06:11;55.25;;;36.53;;
29092;SDS011;16167;48.768;14.984;2024-01-10T11:08:43;52.33;;;36.33;;
29092;SDS011;16167;48.768;14.984;2024-01-10T11:11:17;48.50;;;34.38;;
29092;SDS011;16167;48.768;14.984;2024-01-10T11:14:09;48.25;;;34.83;;
29092;SDS011;16167;48.768;14.984;2024-01-10T11:17:01;49.35;;;35.13;;
29092;SDS011;16167;48.768;14.984;2024-01-10T11:20:04;46.97;;;33.92;;
29092;SDS011;16167;48.768;14.984;2024-01-10T11:22:55;49.00;;;33.35;;
29092;SDS011;16167;48.768;14.984;2024-01-10T11:25:37;46.97;;;33.70;;
29092;SDS011;16167;48.768;14.984;2024-01-10T11:28:07;43.03;;;33.13;;
29092;SDS011;16167;48.768;14.984;2024-01-10T11:30:37;45.50;;;33.38;;
29092;SDS011;16167;48.768;14.984;2024-01-10T11:33:20;45.63;;;32.08;;
29092;SDS011;16167;48.768;14.984;2024-01-10T11:36:07;40.33;;;31.13;;
29092;SDS011;16167;48.768;14.984;2024-01-10T11:38:41;45.13;;;32.97;;
29092;SDS011;16167;48.768;14.984;2024-01-10T11:41:21;43.33;;;32.55;;
29092;SDS011;16167;48.768;14.984;2024-01-10T11:47:07;41.47;;;30.95;;
29092;SDS011;16167;48.768;14.984;2024-01-10T11:49:37;42.13;;;31.77;;
29092;SDS011;16167;48.768;14.984;2024-01-10T11:52:08;42.33;;;32.43;;
29092;SDS011;16167;48.768;14.984;2024-01-10T11:54:37;40.17;;;31.80;;
29092;SDS011;16167;48.768;14.984;2024-01-10T11:57:10;39.15;;;30.80;;
29092;SDS011;16167;48.768;14.984;2024-01-10T11:59:44;39.78;;;30.77;;
29092;SDS011;16167;48.768;14.984;2024-01-10T12:02:18;44.33;;;32.28;;
29092;SDS011;16167;48.768;14.984;2024-01-10T12:04:50;41.50;;;31.23;;
29092;SDS011;16167;48.768;14.984;2024-01-10T12:07:20;39.35;;;29.67;;
29092;SDS011;16167;48.768;14.984;2024-01-10T12:09:50;39.08;;;30.17;;
29092;SDS011;16167;48.768;14.984;2024-01-10T12:12:19;44.20;;;31.02;;
29092;SDS011;16167;48.768;14.984;2024-01-10T12:14:48;41.55;;;31.92;;
29092;SDS011;16167;48.768;14.984;2024-01-10T12:17:19;42.90;;;32.40;;
29092;SDS011;16167;48.768;14.984;2024-01-10T12:19:48;42.65;;;31.85;;
29092;SDS011;16167;48.768;14.984;2024-01-10T12:22:17;43.80;;;31.25;;
29092;SDS011;16167;48.768;14.984;2024-01-10T12:24:51;38.50;;;30.13;;
29092;SDS011;16167;48.768;14.984;2024-01-10T12:27:25;45.72;;;31.58;;
29092;SDS011;16167;48.768;14.984;2024-01-10T12:29:57;42.20;;;31.75;;
29092;SDS011;16167;48.768;14.984;2024-01-10T12:32:29;43.40;;;31.40;;
29092;SDS011;16167;48.768;14.984;2024-01-10T12:35:00;46.47;;;31.50;;
29092;SDS011;16167;48.768;14.984;2024-01-10T12:37:29;45.13;;;32.22;;
29092;SDS011;16167;48.768;14.984;2024-01-10T12:39:59;46.50;;;32.55;;
29092;SDS011;16167;48.768;14.984;2024-01-10T12:42:36;50.20;;;34.08;;
29092;SDS011;16167;48.768;14.984;2024-01-10T12:45:05;50.87;;;34.17;;
29092;SDS011;16167;48.768;14.984;2024-01-10T12:47:47;53.40;;;34.85;;
29092;SDS011;16167;48.768;14.984;2024-01-10T12:50:16;51.50;;;34.03;;
29092;SDS011;16167;48.768;14.984;2024-01-10T12:52:46;52.05;;;32.75;;
29092;SDS011;16167;48.768;14.984;2024-01-10T12:55:16;54.90;;;35.00;;
29092;SDS011;16167;48.768;14.984;2024-01-10T12:57:45;57.03;;;34.92;;
29092;SDS011;16167;48.768;14.984;2024-01-10T13:00:13;53.53;;;34.03;;
29092;SDS011;16167;48.768;14.984;2024-01-10T13:02:42;57.70;;;35.63;;
29092;SDS011;16167;48.768;14.984;2024-01-10T13:05:11;57.93;;;35.60;;
29092;SDS011;16167;48.768;14.984;2024-01-10T13:07:39;56.50;;;34.13;;
29092;SDS011;16167;48.768;14.984;2024-01-10T13:10:08;60.92;;;35.63;;
29092;SDS011;16167;48.768;14.984;2024-01-10T13:12:43;63.00;;;36.22;;
29092;SDS011;16167;48.768;14.984;2024-01-10T13:15:12;55.55;;;35.00;;
29092;SDS011;16167;48.768;14.984;2024-01-10T13:17:40;61.20;;;36.83;;
29092;SDS011;16167;48.768;14.984;2024-01-10T13:20:09;55.38;;;35.17;;
29092;SDS011;16167;48.768;14.984;2024-01-10T13:22:41;59.28;;;35.08;;
29092;SDS011;16167;48.768;14.984;2024-01-10T13:25:13;55.42;;;34.38;;
29092;SDS011;16167;48.768;14.984;2024-01-10T13:27:44;57.72;;;35.95;;
29092;SDS011;16167;48.768;14.984;2024-01-10T13:30:13;58.15;;;35.50;;
29092;SDS011;16167;48.768;14.984;2024-01-10T13:32:41;59.67;;;33.95;;
29092;SDS011;16167;48.768;14.984;2024-01-10T13:35:10;62.53;;;37.08;;
29092;SDS011;16167;48.768;14.984;2024-01-10T13:37:38;57.30;;;35.90;;
29092;SDS011;16167;48.768;14.984;2024-01-10T13:40:09;52.90;;;33.92;;
29092;SDS011;16167;48.768;14.984;2024-01-10T13:42:39;53.17;;;33.60;;
29092;SDS011;16167;48.768;14.984;2024-01-10T13:45:09;55.60;;;35.05;;
29092;SDS011;16167;48.768;14.984;2024-01-10T13:47:38;53.05;;;35.03;;
29092;SDS011;16167;48.768;14.984;2024-01-10T13:50:08;49.40;;;33.58;;
29092;SDS011;16167;48.768;14.984;2024-01-10T13:52:37;49.13;;;33.40;;
29092;SDS011;16167;48.768;14.984;2024-01-10T13:55:05;51.72;;;33.95;;
29092;SDS011;16167;48.768;14.984;2024-01-10T13:57:36;53.15;;;33.88;;
29092;SDS011;16167;48.768;14.984;2024-01-10T14:00:05;62.42;;;36.58;;
29092;SDS011;16167;48.768;14.984;2024-01-10T14:02:36;57.13;;;35.67;;
29092;SDS011;16167;48.768;14.984;2024-01-10T14:05:05;53.38;;;34.13;;
29092;SDS011;16167;48.768;14.984;2024-01-10T14:07:33;55.83;;;34.33;;
29092;SDS011;16167;48.768;14.984;2024-01-10T14:10:06;57.03;;;35.67;;
29092;SDS011;16167;48.768;14.984;2024-01-10T14:12:37;57.47;;;36.08;;
29092;SDS011;16167;48.768;14.984;2024-01-10T14:15:05;56.38;;;35.50;;
29092;SDS011;16167;48.768;14.984;2024-01-10T14:17:37;59.92;;;36.78;;
29092;SDS011;16167;48.768;14.984;2024-01-10T14:20:06;61.75;;;37.28;;
29092;SDS011;16167;48.768;14.984;2024-01-10T14:22:36;63.90;;;35.75;;
29092;SDS011;16167;48.768;14.984;2024-01-10T14:27:35;63.47;;;35.67;;
29092;SDS011;16167;48.768;14.984;2024-01-10T14:30:06;67.03;;;35.42;;
29092;SDS011;16167;48.768;14.984;2024-01-10T14:32:37;61.25;;;33.22;;
29092;SDS011;16167;48.768;14.984;2024-01-10T14:35:06;67.72;;;36.80;;
29092;SDS011;16167;48.768;14.984;2024-01-10T14:40:04;72.32;;;36.30;;
29092;SDS011;16167;48.768;14.984;2024-01-10T14:42:34;67.22;;;36.03;;
29092;SDS011;16167;48.768;14.984;2024-01-10T14:45:02;75.25;;;36.35;;
29092;SDS011;16167;48.768;14.984;2024-01-10T14:47:31;77.28;;;39.10;;